createdAt,value
2022-09-09T00:03:19.519Z,66.67
2022-09-09T00:08:32.671Z,60.91
2022-09-09T00:13:43.750Z,55.82
2022-09-09T00:19:19.233Z,57.11
2022-09-09T00:24:45.128Z,60.94
2022-09-09T00:30:15.291Z,67.61
2022-09-09T00:35:24.910Z,61.26
2022-09-09T00:40:33.126Z,55.94
2022-09-09T00:46:03.858Z,57.30
2022-09-09T00:51:24.893Z,59.29
2022-09-09T00:57:03.307Z,65.46
2022-09-09T01:02:23.463Z,59.56
2022-09-09T01:07:27.354Z,55.50
2022-09-09T01:12:44.843Z,57.67
2022-09-09T01:17:59.185Z,61.21
2022-09-09T01:23:36.570Z,65.27
2022-09-09T01:28:55.697Z,56.93
2022-09-09T01:34:12.715Z,58.42
2022-09-09T01:39:16.339Z,60.21
2022-09-09T01:44:21.102Z,66.60
2022-09-09T01:49:24.822Z,60.76
2022-09-09T01:54:31.043Z,55.27
2022-09-09T02:00:11.773Z,57.16
2022-09-09T02:05:38.052Z,59.26
2022-09-09T02:10:59.747Z,66.10
2022-09-09T02:16:25.752Z,58.77
2022-09-09T02:21:33.032Z,55.71
2022-09-09T02:26:41.541Z,57.99
2022-09-09T02:31:48.425Z,60.32
2022-09-09T02:36:56.391Z,67.06
2022-09-09T02:41:59.312Z,60.89
2022-09-09T02:47:29.689Z,55.52
2022-09-09T02:53:00.260Z,56.80
2022-09-09T02:58:08.199Z,59.21
2022-09-09T03:03:12.037Z,66.46
2022-09-09T03:08:15.615Z,60.87
2022-09-09T03:13:20.410Z,55.09
2022-09-09T03:18:24.182Z,56.53
2022-09-09T03:23:29.246Z,59.07
2022-09-09T03:28:34.303Z,65.70
2022-09-09T03:33:39.265Z,60.82
2022-09-09T03:38:42.962Z,55.16
2022-09-09T03:43:46.001Z,56.10
2022-09-09T03:48:49.100Z,58.37
2022-09-09T03:53:52.115Z,65.14
2022-09-09T03:58:55.193Z,61.15
2022-09-09T04:03:59.302Z,55.57
2022-09-09T04:09:04.348Z,56.83
2022-09-09T04:14:07.743Z,61.16
2022-09-09T04:19:14.767Z,66.49
2022-09-09T04:24:18.738Z,60.81
2022-09-09T04:29:21.828Z,55.32
2022-09-09T04:34:24.816Z,56.55
2022-09-09T04:39:31.931Z,59.59
2022-09-09T04:44:35.721Z,66.53
2022-09-09T04:49:39.558Z,61.39
2022-09-09T04:54:42.757Z,55.59
2022-09-09T04:59:46.936Z,56.13
2022-09-09T05:04:50.850Z,58.58
2022-09-09T05:09:53.891Z,65.76
2022-09-09T05:14:56.763Z,60.65
2022-09-09T05:19:59.873Z,54.95
2022-09-09T05:25:03.220Z,56.70
2022-09-09T05:30:07.516Z,59.26
2022-09-09T05:35:11.241Z,65.93
2022-09-09T05:40:15.696Z,60.55
2022-09-09T05:45:18.596Z,55.25
2022-09-09T05:50:21.573Z,56.87
2022-09-09T05:55:26.645Z,59.26
2022-09-09T06:00:32.715Z,65.59
2022-09-09T06:05:36.290Z,59.98
2022-09-09T06:10:39.241Z,54.92
2022-09-09T06:15:51.231Z,57.64
2022-09-09T06:21:02.127Z,60.24
2022-09-09T06:26:09.199Z,65.78
2022-09-09T06:31:14.892Z,58.45
2022-09-09T06:36:19.514Z,55.62
2022-09-09T06:41:23.939Z,58.59
2022-09-09T06:46:29.415Z,60.19
2022-09-09T06:51:35.783Z,65.51
2022-09-09T06:56:44.643Z,58.64
2022-09-09T07:01:58.136Z,55.17
2022-09-09T07:07:02.624Z,57.56
2022-09-09T07:12:06.966Z,59.54
2022-09-09T07:17:10.720Z,65.18
2022-09-09T07:22:15.681Z,58.06
2022-09-09T07:27:19.025Z,54.62
2022-09-09T07:32:24.424Z,56.78
2022-09-09T07:37:27.827Z,58.16
2022-09-09T07:42:31.156Z,60.08
2022-09-09T07:47:34.725Z,65.79
2022-09-09T07:52:38.607Z,57.19
2022-09-09T07:57:42.265Z,55.51
2022-09-09T08:02:45.780Z,57.05
2022-09-09T08:07:49.329Z,58.52
2022-09-09T08:13:14.921Z,60.25
2022-09-09T08:18:16.652Z,64.36
2022-09-09T08:23:20.307Z,55.80
2022-09-09T08:28:23.274Z,55.38
2022-09-09T08:33:26.728Z,57.01
2022-09-09T08:38:29.773Z,58.17
2022-09-09T08:43:34.416Z,57.89
2022-09-09T08:48:49.970Z,58.18
2022-09-09T08:53:59.018Z,58.86
2022-09-09T08:59:04.486Z,58.76
2022-09-09T09:04:40.705Z,58.51
2022-09-09T09:10:00.286Z,58.29
2022-09-09T09:15:18.197Z,58.48
2022-09-09T09:20:45.253Z,58.72
2022-09-09T09:25:51.244Z,58.31
2022-09-09T09:31:02.806Z,58.02
2022-09-09T09:36:09.215Z,57.92
2022-09-09T09:41:12.517Z,58.32
2022-09-09T09:46:24.851Z,58.09
2022-09-09T09:51:31.437Z,57.89
2022-09-09T09:56:34.682Z,59.15
2022-09-09T10:02:18.322Z,57.71
2022-09-09T10:07:23.656Z,55.21
2022-09-09T10:13:02.061Z,55.42
2022-09-09T10:18:23.105Z,55.45
2022-09-09T10:23:28.709Z,54.87
2022-09-09T10:28:50.500Z,54.07
2022-09-09T10:34:18.320Z,54.73
2022-09-09T10:39:39.223Z,52.91
2022-09-09T10:45:09.426Z,52.76
2022-09-09T10:50:28.076Z,52.45
2022-09-09T10:55:46.470Z,51.57
2022-09-09T11:00:58.281Z,49.34
2022-09-09T11:06:07.862Z,49.10
2022-09-09T11:11:33.261Z,48.27
2022-09-09T11:16:49.709Z,49.51
2022-09-09T11:21:54.407Z,49.13
2022-09-09T11:27:04.202Z,48.85
2022-09-09T11:32:48.290Z,48.90
2022-09-09T11:38:06.136Z,48.29
2022-09-09T11:43:32.061Z,49.38
2022-09-09T11:53:29.196Z,46.96
2022-09-09T11:58:39.294Z,46.42
2022-09-09T12:03:47.967Z,46.52
2022-09-09T12:08:58.233Z,44.79
2022-09-09T12:14:02.327Z,43.71
2022-09-09T12:19:06.816Z,43.95
2022-09-09T12:24:20.060Z,43.61
2022-09-09T12:29:34.295Z,42.72
2022-09-09T12:34:42.684Z,44.71
2022-09-09T12:39:52.402Z,44.87
2022-09-09T12:45:18.103Z,44.69
2022-09-09T12:50:27.354Z,44.78
2022-09-09T12:55:34.469Z,45.20
2022-09-09T13:00:37.420Z,45.03
2022-09-09T13:05:40.399Z,44.92
2022-09-09T13:10:58.670Z,45.52
2022-09-09T13:16:09.537Z,46.60
2022-09-09T13:21:12.979Z,47.16
2022-09-09T13:26:24.286Z,46.99
2022-09-09T13:31:33.801Z,46.72
2022-09-09T13:36:36.896Z,47.03
2022-09-09T13:41:49.584Z,46.36
2022-09-09T13:47:10.572Z,46.64
2022-09-09T13:52:19.944Z,47.80
2022-09-09T13:57:26.337Z,48.37
2022-09-09T14:02:29.381Z,47.66
2022-09-09T14:07:33.188Z,48.89
2022-09-09T14:12:37.430Z,49.25
2022-09-09T14:17:40.414Z,49.88
2022-09-09T14:22:43.309Z,49.96
2022-09-09T14:27:47.042Z,50.35
2022-09-09T14:32:50.037Z,50.63
2022-09-09T14:37:52.905Z,50.95
2022-09-09T14:42:57.476Z,51.17
2022-09-09T14:48:00.986Z,51.42
2022-09-09T14:53:03.948Z,51.33
2022-09-09T14:58:07.387Z,51.40
2022-09-09T15:03:11.893Z,51.44
2022-09-09T15:08:17.163Z,51.52
2022-09-09T15:13:20.037Z,51.43
2022-09-09T15:18:22.901Z,51.19
2022-09-09T15:23:26.129Z,50.91
2022-09-09T15:28:29.653Z,50.59
2022-09-09T15:33:33.132Z,50.61
2022-09-09T15:38:35.915Z,50.84
2022-09-09T15:43:40.321Z,51.11
2022-09-09T15:48:46.661Z,51.46
2022-09-09T15:53:58.655Z,51.91
2022-09-09T15:59:04.809Z,52.28
2022-09-09T16:04:07.765Z,52.64
2022-09-09T16:09:11.309Z,53.04
2022-09-09T16:14:16.711Z,52.88
2022-09-09T16:19:20.190Z,53.15
2022-09-09T16:24:24.731Z,53.38
2022-09-09T16:29:28.434Z,53.59
2022-09-09T16:34:31.910Z,53.85
2022-09-09T16:39:34.997Z,53.91
2022-09-09T16:44:38.336Z,54.04
2022-09-09T16:49:41.787Z,54.29
2022-09-09T16:54:46.346Z,54.42
2022-09-09T16:59:50.284Z,54.78
2022-09-09T17:04:53.656Z,54.85
2022-09-09T17:09:56.807Z,55.16
2022-09-09T17:15:01.783Z,55.46
2022-09-09T17:20:07.302Z,55.90
2022-09-09T17:25:10.159Z,56.32
2022-09-09T17:30:13.702Z,56.35
2022-09-09T17:35:17.409Z,56.98
2022-09-09T17:40:21.420Z,57.34
2022-09-09T17:45:24.350Z,57.73
2022-09-09T17:50:27.485Z,58.08
2022-09-09T17:55:30.292Z,58.45
2022-09-09T18:00:33.335Z,58.81
2022-09-09T18:05:36.196Z,59.15
2022-09-09T18:10:39.717Z,59.54
2022-09-09T18:15:49.221Z,59.85
2022-09-09T18:20:59.858Z,60.19
2022-09-09T18:26:11.140Z,60.63
2022-09-09T18:31:16.039Z,60.89
2022-09-09T18:36:44.487Z,61.11
2022-09-09T18:41:50.379Z,61.14
2022-09-09T18:46:54.518Z,61.38
2022-09-09T18:51:58.074Z,61.68
2022-09-09T18:57:01.596Z,62.16
2022-09-09T19:02:04.894Z,62.20
2022-09-09T19:07:08.004Z,67.88
2022-09-09T19:12:11.170Z,58.22
2022-09-09T19:17:14.214Z,56.11
2022-09-09T19:22:17.902Z,56.93
2022-09-09T19:27:20.819Z,57.56
2022-09-09T19:37:47.814Z,59.02
2022-09-09T19:42:53.566Z,59.57
2022-09-09T19:47:56.466Z,60.27
2022-09-09T19:53:00.238Z,60.75
2022-09-09T19:58:04.393Z,61.11
2022-09-09T20:03:18.590Z,61.98
2022-09-09T20:08:22.686Z,68.46
2022-09-09T20:13:25.794Z,61.18
2022-09-09T20:18:33.131Z,53.41
2022-09-09T20:23:37.555Z,54.45
2022-09-09T20:28:42.379Z,56.06
2022-09-09T20:33:48.150Z,57.44
2022-09-09T20:38:57.978Z,58.01
2022-09-09T20:44:07.887Z,59.20
2022-09-09T20:49:12.008Z,60.51
2022-09-09T20:54:18.158Z,61.10
2022-09-09T20:59:23.675Z,67.56
2022-09-09T21:04:26.773Z,61.03
2022-09-09T21:09:29.664Z,54.36
2022-09-09T21:14:32.776Z,55.44
2022-09-09T21:19:35.868Z,56.95
2022-09-09T21:24:38.765Z,58.09
2022-09-09T21:29:42.454Z,59.28
2022-09-09T21:34:46.131Z,60.37
2022-09-09T21:39:48.977Z,61.46
2022-09-09T21:44:51.869Z,67.85
2022-09-09T21:49:54.699Z,61.47
2022-09-09T21:54:58.102Z,55.04
2022-09-09T22:00:01.256Z,55.66
2022-09-09T22:05:05.206Z,57.48
2022-09-09T22:10:10.136Z,58.83
2022-09-09T22:15:13.419Z,60.18
2022-09-09T22:20:16.461Z,61.47
2022-09-09T22:25:19.530Z,67.83
2022-09-09T22:30:22.467Z,61.13
2022-09-09T22:35:25.333Z,55.18
2022-09-09T22:40:28.187Z,56.15
2022-09-09T22:45:32.671Z,57.95
2022-09-09T22:50:41.942Z,59.28
2022-09-09T22:55:59.499Z,60.33
2022-09-09T23:01:15.545Z,66.94
2022-09-09T23:06:24.461Z,60.43
2022-09-09T23:11:31.790Z,54.86
2022-09-09T23:16:45.398Z,56.41
2022-09-09T23:21:48.612Z,58.01
2022-09-09T23:26:53.050Z,59.53
2022-09-09T23:31:55.970Z,60.80
2022-09-09T23:36:58.919Z,67.52
2022-09-09T23:42:06.146Z,61.54
2022-09-09T23:47:09.584Z,54.96
2022-09-09T23:52:12.718Z,56.03
2022-09-09T23:57:15.549Z,57.80
